Time;durP1;ratioP1;P1;durP2;ratioP2;P2;SDS_P1;SDS_P2;PMS_P1;PMS_P2;Temp;Humidity;BMP_temperature;BMP_pressure;BME280_temperature;BME280_humidity;BME280_pressure;Samples;Min_cycle;Max_cycle;Signal;HPM_P1;HPM_P2
2023/05/01 00:01:23;;;;;;;90.20;53.88;;;17.70;74.80;;;;;;4997443;28;94966;-84
2023/05/01 00:03:49;;;;;;;89.88;53.78;;;17.70;74.80;;;;;;4996450;28;94521;-84
2023/05/01 00:06:14;;;;;;;89.90;53.83;;;17.70;74.80;;;;;;5003839;28;95334;-84
2023/05/01 00:08:40;;;;;;;89.90;53.78;;;17.70;74.60;;;;;;4998846;28;98898;-84
2023/05/01 00:11:11;;;;;;;89.53;53.65;;;17.70;74.70;;;;;;4997012;28;94884;-84
2023/05/01 00:13:36;;;;;;;90.35;54.08;;;17.70;74.70;;;;;;4992344;28;96314;-84
2023/05/01 00:16:10;;;;;;;90.05;53.92;;;17.70;74.60;;;;;;4996475;28;95846;-84
2023/05/01 00:18:36;;;;;;;89.82;53.78;;;17.70;74.70;;;;;;4995878;28;96078;-84
2023/05/01 00:21:02;;;;;;;89.80;53.55;;;17.70;74.60;;;;;;4999559;28;95243;-84
2023/05/01 00:23:28;;;;;;;89.53;53.92;;;17.70;74.60;;;;;;4993075;28;100011;-84
2023/05/01 00:25:54;;;;;;;89.68;53.20;;;17.70;74.60;;;;;;4993051;28;97876;-84
2023/05/01 00:28:19;;;;;;;89.47;53.58;;;17.70;74.60;;;;;;4994477;28;94768;-84
2023/05/01 00:30:45;;;;;;;89.38;53.42;;;17.70;74.60;;;;;;4992465;28;94501;-84
2023/05/01 00:33:12;;;;;;;90.15;53.95;;;17.70;74.60;;;;;;5005362;28;98592;-84
2023/05/01 00:35:37;;;;;;;91.25;53.85;;;17.70;74.60;;;;;;5000853;28;97720;-84
2023/05/01 00:38:03;;;;;;;90.47;53.78;;;17.70;74.60;;;;;;4999767;28;96544;-84
2023/05/01 00:40:29;;;;;;;89.22;53.67;;;17.70;74.60;;;;;;4997523;28;94899;-84
2023/05/01 00:42:55;;;;;;;90.50;53.78;;;17.70;74.60;;;;;;4996845;28;95946;-84
2023/05/01 00:45:21;;;;;;;90.68;53.92;;;17.70;74.60;;;;;;4999681;28;97806;-84
2023/05/01 00:47:47;;;;;;;89.72;53.90;;;17.70;74.70;;;;;;5000360;28;94269;-84
2023/05/01 00:50:13;;;;;;;90.10;53.47;;;17.60;74.70;;;;;;4997354;28;94794;-84
2023/05/01 00:52:38;;;;;;;88.68;53.55;;;17.70;74.70;;;;;;4996155;28;96598;-84
2023/05/01 00:55:05;;;;;;;89.68;53.90;;;17.70;75.40;;;;;;4997762;28;94604;-84
2023/05/01 00:57:32;;;;;;;90.50;53.85;;;17.60;74.70;;;;;;4997502;28;94861;-84
2023/05/01 00:59:58;;;;;;;90.53;53.90;;;17.70;74.80;;;;;;4999113;28;95787;-84
2023/05/01 01:02:23;;;;;;;91.00;53.72;;;17.70;74.70;;;;;;5001192;28;95893;-83
2023/05/01 01:04:49;;;;;;;89.00;53.55;;;17.60;74.60;;;;;;4997428;28;98850;-83
2023/05/01 01:07:28;;;;;;;91.10;54.28;;;17.60;74.60;;;;;;5000368;28;94415;-83
2023/05/01 01:10:05;;;;;;;89.78;53.67;;;17.60;74.50;;;;;;4999473;28;94806;-82
2023/05/01 01:12:49;;;;;;;89.47;54.10;;;17.60;74.60;;;;;;5001196;28;97625;-83
2023/05/01 01:15:48;;;;;;;89.85;54.13;;;17.60;74.60;;;;;;4997337;28;97887;-83
2023/05/01 01:18:27;;;;;;;89.28;53.80;;;17.60;74.50;;;;;;5000951;28;94766;-83
2023/05/01 01:21:23;;;;;;;89.22;53.28;;;17.60;74.70;;;;;;4998815;28;94095;-83
2023/05/01 01:24:23;;;;;;;89.57;53.70;;;17.60;74.60;;;;;;4996258;28;96238;-83
2023/05/01 01:27:07;;;;;;;89.70;53.20;;;17.60;74.50;;;;;;4996812;28;98052;-83
2023/05/01 01:29:57;;;;;;;89.40;53.90;;;17.60;74.50;;;;;;5000693;28;95446;-83
2023/05/01 01:33:00;;;;;;;89.18;53.50;;;17.60;74.60;;;;;;5000191;28;94902;-83
2023/05/01 01:35:27;;;;;;;89.78;53.63;;;17.60;74.50;;;;;;5001460;28;98706;-83
2023/05/01 01:38:16;;;;;;;89.85;53.83;;;17.60;74.50;;;;;;5002959;28;98433;-83
2023/05/01 01:40:59;;;;;;;90.82;53.53;;;17.60;74.40;;;;;;4999065;27;95807;-82
2023/05/01 01:43:29;;;;;;;91.75;54.35;;;17.50;74.30;;;;;;4999236;28;94480;-83
2023/05/01 01:46:02;;;;;;;89.15;53.85;;;17.60;74.40;;;;;;4998007;28;95348;-82
2023/05/01 01:48:35;;;;;;;89.78;53.95;;;17.50;74.30;;;;;;4998710;28;94679;-83
2023/05/01 01:51:08;;;;;;;89.97;54.13;;;17.50;74.30;;;;;;5000160;28;94723;-83
2023/05/01 01:53:36;;;;;;;89.38;54.03;;;17.60;74.40;;;;;;4991268;28;95537;-84
2023/05/01 01:56:05;;;;;;;90.00;53.65;;;17.50;74.30;;;;;;4994367;28;96752;-84
2023/05/01 01:58:32;;;;;;;89.72;53.85;;;17.50;74.20;;;;;;4997446;28;95622;-84
2023/05/01 02:00:58;;;;;;;88.95;53.65;;;17.50;74.30;;;;;;4994942;28;94510;-83
2023/05/01 02:03:26;;;;;;;90.82;53.88;;;17.50;74.30;;;;;;5000928;28;95448;-83
2023/05/01 02:05:53;;;;;;;89.13;53.60;;;17.50;74.30;;;;;;4997759;28;95260;-83
2023/05/01 02:08:20;;;;;;;89.88;54.13;;;17.50;74.30;;;;;;5000407;28;97522;-83
2023/05/01 02:10:47;;;;;;;90.70;54.03;;;17.50;74.30;;;;;;5000825;28;94745;-83
2023/05/01 02:13:14;;;;;;;89.18;53.78;;;17.50;74.30;;;;;;5002743;28;93918;-83
2023/05/01 02:15:39;;;;;;;90.28;53.92;;;17.50;74.40;;;;;;4996213;28;98287;-84
2023/05/01 02:18:05;;;;;;;89.15;53.58;;;17.50;74.30;;;;;;5000396;28;94684;-83
2023/05/01 02:20:32;;;;;;;89.07;53.65;;;17.50;74.40;;;;;;4995704;28;95713;-83
2023/05/01 02:22:59;;;;;;;89.80;54.20;;;17.50;74.40;;;;;;5000636;28;95503;-83
2023/05/01 02:25:30;;;;;;;90.07;53.95;;;17.50;74.40;;;;;;4999092;28;95384;-84
2023/05/01 02:27:59;;;;;;;90.20;53.85;;;17.50;74.40;;;;;;5000522;28;95799;-83
2023/05/01 02:30:25;;;;;;;90.72;53.83;;;17.50;74.50;;;;;;5002842;28;94663;-83
2023/05/01 02:32:51;;;;;;;89.93;54.30;;;17.50;74.50;;;;;;4998442;28;99725;-84
2023/05/01 02:35:16;;;;;;;89.13;53.58;;;17.50;74.40;;;;;;5001734;28;95466;-83
2023/05/01 02:37:43;;;;;;;89.30;53.53;;;17.50;74.30;;;;;;5000588;28;98033;-84
2023/05/01 02:40:13;;;;;;;89.53;53.85;;;17.50;74.30;;;;;;5003541;28;95720;-83
2023/05/01 02:42:42;;;;;;;89.45;53.70;;;17.40;74.30;;;;;;5002810;28;95199;-83
2023/05/01 02:45:15;;;;;;;89.90;54.20;;;17.40;74.20;;;;;;5012388;27;99204;-84
2023/05/01 02:47:43;;;;;;;89.97;53.88;;;17.50;74.30;;;;;;4999911;28;94965;-83
2023/05/01 02:50:09;;;;;;;91.32;54.35;;;17.50;74.30;;;;;;4998043;28;94565;-83
2023/05/01 02:52:36;;;;;;;88.90;53.88;;;17.40;74.20;;;;;;4998494;28;95402;-83
2023/05/01 02:55:02;;;;;;;89.35;53.88;;;17.40;74.30;;;;;;5001581;28;98584;-83
2023/05/01 02:57:28;;;;;;;89.72;54.08;;;17.40;74.20;;;;;;5004377;28;95068;-83
2023/05/01 02:59:53;;;;;;;89.13;53.88;;;17.40;74.30;;;;;;5014743;27;94408;-83
2023/05/01 03:02:19;;;;;;;89.03;53.38;;;17.40;74.30;;;;;;4998396;28;94757;-83
2023/05/01 03:04:45;;;;;;;90.53;54.15;;;17.40;74.20;;;;;;4997636;28;98202;-83
2023/05/01 03:07:10;;;;;;;90.13;54.63;;;17.40;74.20;;;;;;5002474;28;98397;-83
2023/05/01 03:09:37;;;;;;;88.57;53.67;;;17.40;74.20;;;;;;5016583;27;95672;-84
2023/05/01 03:12:02;;;;;;;88.82;53.60;;;17.40;74.20;;;;;;5002545;28;94808;-83
2023/05/01 03:14:28;;;;;;;89.38;53.97;;;17.40;74.10;;;;;;4997684;28;97488;-84
2023/05/01 03:16:54;;;;;;;89.47;54.22;;;17.40;74.10;;;;;;4995828;28;95253;-84
2023/05/01 03:19:20;;;;;;;89.57;54.22;;;17.40;74.20;;;;;;4989489;28;94456;-84
2023/05/01 03:21:46;;;;;;;90.63;54.25;;;17.40;74.20;;;;;;4996873;28;95393;-84
2023/05/01 03:24:11;;;;;;;89.90;53.97;;;17.30;74.10;;;;;;4989780;28;95327;-84
2023/05/01 03:26:37;;;;;;;90.35;54.25;;;17.30;74.10;;;;;;4993925;28;94665;-83
2023/05/01 03:29:03;;;;;;;89.20;53.80;;;17.30;74.20;;;;;;5011595;27;95517;-83
2023/05/01 03:31:28;;;;;;;90.00;53.78;;;17.40;74.30;;;;;;4998579;28;94589;-83
2023/05/01 03:33:54;;;;;;;89.68;53.97;;;17.30;74.20;;;;;;4996769;28;96525;-84
2023/05/01 03:36:21;;;;;;;90.20;54.17;;;17.40;74.30;;;;;;5000481;28;94969;-83
2023/05/01 03:38:47;;;;;;;89.18;54.08;;;17.30;74.10;;;;;;4997882;28;94766;-84
2023/05/01 03:41:13;;;;;;;90.20;54.35;;;17.30;74.10;;;;;;4997112;28;95184;-83
2023/05/01 03:43:39;;;;;;;89.45;54.30;;;17.40;74.20;;;;;;4994634;28;99411;-83
2023/05/01 03:46:04;;;;;;;89.88;54.35;;;17.30;74.10;;;;;;5000946;28;97484;-83
2023/05/01 03:48:30;;;;;;;90.60;54.38;;;17.30;74.10;;;;;;4994249;28;94958;-83
2023/05/01 03:50:57;;;;;;;89.82;54.42;;;17.40;74.20;;;;;;4997695;28;94324;-83
2023/05/01 03:53:23;;;;;;;91.25;54.30;;;17.30;74.10;;;;;;5000115;28;99475;-83
2023/05/01 03:55:48;;;;;;;89.85;54.35;;;17.30;74.30;;;;;;4993745;28;98204;-84
2023/05/01 03:58:14;;;;;;;90.22;54.40;;;17.30;74.30;;;;;;4994061;28;96491;-83
2023/05/01 04:00:40;;;;;;;89.85;54.40;;;17.30;74.30;;;;;;5002269;28;95836;-84
2023/05/01 04:03:06;;;;;;;90.82;54.38;;;17.30;75.10;;;;;;5001145;28;98039;-84
2023/05/01 04:05:32;;;;;;;90.05;54.40;;;17.30;74.40;;;;;;4989507;28;94973;-84
2023/05/01 04:07:58;;;;;;;89.97;54.50;;;17.30;74.40;;;;;;4988186;28;95665;-84
2023/05/01 04:10:24;;;;;;;89.72;54.20;;;17.30;74.40;;;;;;4994836;28;95956;-84
2023/05/01 04:12:49;;;;;;;90.95;54.33;;;17.30;74.40;;;;;;4998714;28;95732;-84
2023/05/01 04:15:15;;;;;;;89.72;54.25;;;17.20;74.50;;;;;;4995172;28;97951;-84
2023/05/01 04:17:42;;;;;;;89.28;54.10;;;17.30;74.40;;;;;;4996381;28;94520;-84
2023/05/01 04:20:09;;;;;;;89.32;54.33;;;17.30;74.50;;;;;;4999770;28;94699;-84
2023/05/01 04:22:36;;;;;;;89.50;54.38;;;17.30;74.50;;;;;;4996374;28;96650;-84
2023/05/01 04:25:02;;;;;;;90.05;54.03;;;17.30;74.50;;;;;;4994683;28;97220;-84
2023/05/01 04:27:28;;;;;;;90.75;54.25;;;17.30;74.40;;;;;;5009373;27;94289;-83
2023/05/01 04:29:54;;;;;;;89.13;54.15;;;17.30;74.40;;;;;;4996924;28;94192;-84
2023/05/01 04:32:20;;;;;;;89.85;54.33;;;17.20;74.30;;;;;;4996828;28;98611;-84
2023/05/01 04:34:46;;;;;;;88.78;53.92;;;17.30;74.40;;;;;;4994852;28;94996;-84
2023/05/01 04:37:13;;;;;;;90.35;54.90;;;17.20;74.40;;;;;;4999889;28;94359;-84
2023/05/01 04:39:38;;;;;;;89.43;54.30;;;17.20;74.40;;;;;;4999759;28;94170;-84
2023/05/01 04:42:04;;;;;;;91.85;54.72;;;17.20;75.10;;;;;;4998971;28;98352;-84
2023/05/01 04:44:32;;;;;;;88.72;53.72;;;17.20;74.40;;;;;;4994830;28;98284;-84
2023/05/01 04:47:00;;;;;;;89.20;54.08;;;17.20;74.40;;;;;;4998925;28;95670;-83
2023/05/01 04:49:26;;;;;;;88.95;54.05;;;17.20;74.40;;;;;;4994521;28;94650;-84
2023/05/01 04:51:51;;;;;;;89.32;54.17;;;17.20;74.40;;;;;;4999421;28;99689;-84
2023/05/01 04:54:17;;;;;;;88.97;53.97;;;17.20;74.50;;;;;;5001026;28;97799;-84
2023/05/01 04:56:42;;;;;;;88.78;53.90;;;17.20;74.40;;;;;;5012878;27;95287;-84
2023/05/01 04:59:08;;;;;;;90.25;54.65;;;17.20;74.40;;;;;;4997324;28;94556;-84
2023/05/01 05:01:34;;;;;;;89.82;54.30;;;17.20;74.40;;;;;;4994908;28;95018;-83
2023/05/01 05:03:59;;;;;;;91.15;54.88;;;17.20;74.50;;;;;;4996528;28;95083;-84
2023/05/01 05:06:25;;;;;;;89.80;54.72;;;17.20;74.50;;;;;;4990590;28;95794;-84
2023/05/01 05:08:51;;;;;;;90.22;54.42;;;17.20;74.50;;;;;;4997638;28;94554;-84
2023/05/01 05:11:17;;;;;;;89.72;54.22;;;17.20;74.50;;;;;;4998449;28;96055;-84
2023/05/01 05:13:44;;;;;;;89.60;54.55;;;17.20;74.50;;;;;;4996409;28;97362;-84
2023/05/01 05:16:09;;;;;;;89.38;54.35;;;17.20;74.50;;;;;;4998141;28;94444;-83
2023/05/01 05:18:35;;;;;;;90.03;54.72;;;17.20;74.50;;;;;;4992894;28;94609;-83
2023/05/01 05:21:05;;;;;;;89.72;54.58;;;17.20;74.40;;;;;;4992994;28;97546;-84
2023/05/01 05:23:31;;;;;;;89.22;54.42;;;17.10;74.30;;;;;;4995836;28;97924;-84
2023/05/01 05:26:00;;;;;;;89.32;54.42;;;17.20;74.40;;;;;;4992645;28;94689;-84
2023/05/01 05:28:26;;;;;;;90.35;54.70;;;17.10;74.30;;;;;;4997715;28;94032;-83
2023/05/01 05:30:53;;;;;;;89.50;54.38;;;17.10;74.30;;;;;;5011236;27;98384;-84
2023/05/01 05:33:18;;;;;;;89.95;54.33;;;17.10;74.30;;;;;;5000550;28;98185;-84
2023/05/01 05:35:44;;;;;;;90.20;54.92;;;17.10;74.30;;;;;;4998112;28;94879;-83
2023/05/01 05:38:10;;;;;;;91.07;54.97;;;17.10;74.40;;;;;;4999837;28;99655;-84
2023/05/01 05:40:36;;;;;;;90.05;54.60;;;17.10;74.50;;;;;;5001284;28;96328;-84
2023/05/01 05:43:01;;;;;;;90.68;54.28;;;17.10;74.60;;;;;;5002822;28;96809;-83
2023/05/01 05:45:28;;;;;;;91.70;55.22;;;17.10;74.60;;;;;;5009460;28;94512;-84
2023/05/01 05:47:53;;;;;;;90.85;55.50;;;17.10;74.50;;;;;;5004652;28;94702;-83
2023/05/01 05:50:20;;;;;;;89.60;54.67;;;17.10;74.40;;;;;;5004852;28;95214;-84
2023/05/01 05:52:46;;;;;;;92.00;55.20;;;17.10;74.30;;;;;;5004872;28;96788;-83
2023/05/01 05:55:11;;;;;;;92.70;55.33;;;17.10;74.40;;;;;;5011294;28;94613;-84
2023/05/01 05:57:37;;;;;;;90.25;54.88;;;17.10;74.30;;;;;;5002612;28;94618;-84
2023/05/01 06:00:08;;;;;;;89.82;54.92;;;17.10;74.20;;;;;;5003681;28;99993;-83
2023/05/01 06:02:33;;;;;;;90.53;54.88;;;17.10;74.10;;;;;;5003251;28;95977;-84
2023/05/01 06:04:59;;;;;;;90.30;54.90;;;17.10;74.30;;;;;;5002172;28;94445;-84
2023/05/01 06:07:24;;;;;;;91.50;55.53;;;17.10;74.50;;;;;;5006385;28;96648;-83
2023/05/01 06:09:50;;;;;;;89.75;55.20;;;17.10;74.30;;;;;;5001447;28;94925;-84
2023/05/01 06:12:16;;;;;;;91.35;55.50;;;17.10;74.30;;;;;;4998200;28;94719;-84
2023/05/01 06:14:42;;;;;;;91.57;55.90;;;17.10;74.30;;;;;;4998963;28;94214;-84
2023/05/01 06:17:07;;;;;;;94.65;56.80;;;17.10;74.40;;;;;;5006272;28;94894;-83
2023/05/01 06:19:34;;;;;;;92.78;56.33;;;17.10;74.20;;;;;;5000723;28;99274;-84
2023/05/01 06:22:00;;;;;;;91.85;56.00;;;17.10;74.30;;;;;;5005364;28;97755;-83
2023/05/01 06:24:26;;;;;;;93.45;56.13;;;17.10;74.10;;;;;;4999600;28;96253;-84
2023/05/01 06:26:52;;;;;;;92.38;55.42;;;17.10;74.30;;;;;;5001530;28;95140;-83
2023/05/01 06:29:18;;;;;;;92.95;56.53;;;17.10;74.00;;;;;;4999820;28;95244;-83
2023/05/01 06:31:44;;;;;;;93.75;57.33;;;17.10;73.90;;;;;;5001316;28;98032;-83
2023/05/01 06:34:10;;;;;;;94.05;56.85;;;17.10;73.70;;;;;;5002068;28;95030;-84
2023/05/01 06:36:36;;;;;;;96.32;56.70;;;17.10;73.70;;;;;;5006446;28;94943;-84
2023/05/01 06:39:01;;;;;;;92.25;56.17;;;17.10;73.70;;;;;;5004501;28;99090;-84
2023/05/01 06:41:27;;;;;;;93.78;55.95;;;17.10;73.90;;;;;;5003108;28;94997;-83
2023/05/01 06:43:53;;;;;;;92.57;56.60;;;17.10;73.80;;;;;;5003221;28;95476;-84
2023/05/01 06:46:19;;;;;;;95.20;56.80;;;17.10;73.80;;;;;;5008014;28;94335;-84
2023/05/01 06:48:44;;;;;;;93.45;55.92;;;17.10;73.70;;;;;;5002105;28;98438;-84
2023/05/01 06:51:10;;;;;;;92.07;56.00;;;17.10;74.00;;;;;;5000564;28;95575;-84
2023/05/01 06:53:36;;;;;;;90.78;55.78;;;17.10;73.90;;;;;;4995919;27;96359;-84
2023/05/01 06:56:02;;;;;;;92.15;56.30;;;17.10;74.40;;;;;;4998535;28;94515;-84
2023/05/01 06:58:27;;;;;;;93.53;56.72;;;17.10;73.80;;;;;;4998376;28;95291;-84
2023/05/01 07:00:53;;;;;;;93.05;56.92;;;17.10;73.80;;;;;;4999710;28;95020;-83
2023/05/01 07:03:19;;;;;;;93.80;56.45;;;17.10;73.90;;;;;;5011215;27;94368;-84
2023/05/01 07:05:44;;;;;;;92.57;56.05;;;17.10;73.80;;;;;;4998913;28;93259;-83
2023/05/01 07:08:10;;;;;;;92.78;56.78;;;17.10;73.80;;;;;;5000219;28;99130;-83
2023/05/01 07:10:36;;;;;;;92.93;56.33;;;17.10;73.80;;;;;;4999429;28;98481;-84
2023/05/01 07:13:02;;;;;;;93.65;56.97;;;17.10;73.60;;;;;;4997546;28;97076;-84
2023/05/01 07:15:27;;;;;;;93.45;57.10;;;17.10;73.80;;;;;;4998397;28;94518;-83
2023/05/01 07:17:55;;;;;;;94.65;58.10;;;17.10;73.80;;;;;;4995081;28;95162;-83
2023/05/01 07:20:20;;;;;;;92.47;56.38;;;17.10;73.90;;;;;;5001747;28;95607;-84
2023/05/01 07:22:46;;;;;;;94.47;58.05;;;17.10;73.70;;;;;;5011766;27;96681;-83
2023/05/01 07:25:12;;;;;;;94.28;56.95;;;17.10;73.50;;;;;;5000961;28;94891;-84
2023/05/01 07:27:38;;;;;;;96.10;57.50;;;17.10;73.40;;;;;;5000880;28;99337;-85
2023/05/01 07:30:04;;;;;;;93.68;56.72;;;17.10;73.50;;;;;;5000315;28;97741;-84
2023/05/01 07:32:31;;;;;;;92.55;56.22;;;17.20;73.60;;;;;;4999710;28;94303;-84
2023/05/01 07:34:57;;;;;;;95.20;57.60;;;17.10;73.50;;;;;;4997581;28;94784;-84
2023/05/01 07:37:25;;;;;;;95.47;56.33;;;17.20;73.30;;;;;;5002212;28;99401;-84
2023/05/01 07:39:51;;;;;;;93.68;56.97;;;17.20;73.40;;;;;;4998750;28;98614;-86
2023/05/01 07:42:17;;;;;;;94.60;57.42;;;17.20;73.30;;;;;;4996776;28;95879;-84
2023/05/01 07:44:42;;;;;;;98.28;57.83;;;17.20;73.80;;;;;;5003423;28;96119;-85
2023/05/01 07:47:08;;;;;;;94.53;57.03;;;17.20;72.80;;;;;;5000488;28;97872;-85
2023/05/01 07:49:37;;;;;;;94.45;57.42;;;17.20;73.00;;;;;;4998724;28;95008;-84
2023/05/01 07:52:04;;;;;;;95.47;57.72;;;17.20;72.90;;;;;;4997433;28;94245;-84
2023/05/01 07:54:30;;;;;;;95.63;58.00;;;17.30;73.00;;;;;;5010482;27;98733;-84
2023/05/01 07:56:55;;;;;;;93.32;56.13;;;17.20;73.00;;;;;;4999727;28;98136;-83
2023/05/01 07:59:21;;;;;;;94.28;56.38;;;17.20;73.10;;;;;;4998835;28;96649;-84
2023/05/01 08:01:47;;;;;;;92.75;56.25;;;17.20;73.00;;;;;;4998157;28;95188;-83
2023/05/01 08:04:13;;;;;;;95.50;57.30;;;17.30;72.90;;;;;;5001576;28;94463;-83
2023/05/01 08:06:39;;;;;;;93.55;56.60;;;17.20;73.00;;;;;;4996304;28;95137;-84
2023/05/01 08:09:05;;;;;;;94.72;57.20;;;17.30;73.20;;;;;;5000021;28;95047;-83
2023/05/01 08:11:32;;;;;;;96.32;57.97;;;17.30;73.20;;;;;;5001150;28;94576;-84
2023/05/01 08:13:58;;;;;;;94.45;56.95;;;17.30;73.10;;;;;;4996526;28;94158;-84
2023/05/01 08:16:23;;;;;;;97.45;57.15;;;17.30;73.00;;;;;;4997529;28;95113;-84
2023/05/01 08:18:49;;;;;;;93.72;56.92;;;17.30;72.70;;;;;;4997041;28;97659;-83
2023/05/01 08:21:15;;;;;;;94.47;57.05;;;17.30;72.80;;;;;;4993178;28;95077;-83
2023/05/01 08:23:40;;;;;;;92.82;56.33;;;17.30;73.20;;;;;;4995204;28;95175;-84
2023/05/01 08:26:06;;;;;;;93.18;55.95;;;17.30;73.20;;;;;;4994668;28;98759;-84
2023/05/01 08:28:34;;;;;;;92.72;55.70;;;17.30;73.30;;;;;;5005177;28;96609;-84
2023/05/01 08:31:01;;;;;;;97.53;57.50;;;17.30;73.30;;;;;;4999081;28;95440;-83
2023/05/01 08:33:26;;;;;;;94.32;57.28;;;17.30;73.10;;;;;;4998505;28;95719;-84
2023/05/01 08:35:52;;;;;;;93.75;57.10;;;17.30;72.80;;;;;;4993469;28;99575;-83
2023/05/01 08:38:18;;;;;;;93.47;56.50;;;17.30;72.90;;;;;;4994378;28;98069;-83
2023/05/01 08:40:51;;;;;;;93.05;55.85;;;17.30;73.20;;;;;;4999933;28;95693;-83
2023/05/01 08:43:17;;;;;;;92.03;55.78;;;17.30;73.30;;;;;;4995685;28;95016;-84
2023/05/01 08:45:45;;;;;;;92.32;55.78;;;17.40;73.40;;;;;;4997919;28;97939;-83
2023/05/01 08:48:12;;;;;;;93.85;56.33;;;17.40;73.30;;;;;;4993037;28;96709;-83
2023/05/01 08:50:39;;;;;;;92.72;56.10;;;17.40;73.20;;;;;;5001724;28;96514;-83
2023/05/01 08:53:07;;;;;;;105.80;63.88;;;17.30;73.30;;;;;;5001919;28;95712;-83
2023/05/01 08:55:34;;;;;;;115.13;71.70;;;17.30;73.40;;;;;;4998633;28;99488;-84
2023/05/01 08:58:01;;;;;;;118.10;73.15;;;17.40;73.60;;;;;;4990963;28;96659;-84
2023/05/01 09:00:28;;;;;;;115.47;72.18;;;17.40;73.70;;;;;;4998013;28;95442;-83
2023/05/01 09:02:55;;;;;;;113.38;71.18;;;17.40;74.00;;;;;;5002279;28;94435;-84
2023/05/01 09:05:21;;;;;;;111.45;69.03;;;17.40;74.00;;;;;;4999168;28;95069;-84
2023/05/01 09:07:47;;;;;;;110.45;68.80;;;17.40;74.00;;;;;;4997740;28;94698;-84
2023/05/01 09:10:15;;;;;;;109.18;67.47;;;17.40;74.10;;;;;;5003097;28;94341;-84
2023/05/01 09:12:43;;;;;;;111.57;66.30;;;17.50;74.30;;;;;;5001590;28;95061;-84
2023/05/01 09:15:11;;;;;;;109.38;66.40;;;17.40;74.20;;;;;;4994714;28;96034;-84
2023/05/01 09:17:37;;;;;;;108.05;64.25;;;17.40;74.30;;;;;;4999067;28;97009;-84
2023/05/01 09:20:05;;;;;;;106.85;63.90;;;17.40;74.30;;;;;;5005329;28;94443;-84
2023/05/01 09:22:32;;;;;;;100.95;61.83;;;17.40;74.50;;;;;;5003131;28;94832;-84
2023/05/01 09:24:58;;;;;;;103.10;62.13;;;17.50;74.30;;;;;;4999356;28;98473;-84
2023/05/01 09:27:25;;;;;;;102.53;61.47;;;17.40;74.30;;;;;;5000737;28;94986;-83
2023/05/01 09:29:51;;;;;;;99.45;59.63;;;17.50;74.50;;;;;;5004036;28;94681;-84
2023/05/01 09:32:23;;;;;;;100.43;60.35;;;17.50;74.50;;;;;;5004862;28;93696;-84
2023/05/01 09:34:50;;;;;;;101.03;60.08;;;17.50;74.60;;;;;;4998930;28;98143;-85
2023/05/01 09:37:30;;;;;;;98.35;59.22;;;17.50;74.60;;;;;;5003969;28;95253;-83
2023/05/01 09:40:13;;;;;;;98.93;59.53;;;17.50;74.60;;;;;;5008814;28;95265;-93
2023/05/01 09:42:57;;;;;;;100.47;59.05;;;17.50;74.50;;;;;;5013905;22;94584;-47
2023/05/01 09:45:25;;;;;;;99.30;59.08;;;17.60;74.60;;;;;;4954200;28;95866;-47
2023/05/01 09:47:51;;;;;;;97.95;58.80;;;17.50;74.60;;;;;;4958587;28;94995;-48
2023/05/01 09:50:33;;;;;;;98.88;58.70;;;17.50;74.50;;;;;;4943542;28;95600;-48
2023/05/01 09:53:03;;;;;;;99.10;58.38;;;17.50;74.70;;;;;;4946269;28;96285;-48
2023/05/01 09:55:30;;;;;;;99.28;58.67;;;17.60;74.70;;;;;;4938002;28;96995;-48
2023/05/01 09:57:57;;;;;;;97.25;57.95;;;17.50;74.70;;;;;;4939583;28;99307;-47
2023/05/01 10:00:24;;;;;;;98.72;58.50;;;17.60;74.80;;;;;;4939917;28;95386;-45
2023/05/01 10:02:50;;;;;;;98.68;58.47;;;17.60;75.20;;;;;;4939470;28;94466;-46
2023/05/01 10:05:16;;;;;;;97.70;58.25;;;17.60;75.20;;;;;;4936700;28;96481;-47
2023/05/01 10:07:58;;;;;;;97.32;57.70;;;17.60;75.40;;;;;;4941870;28;97365;-46
2023/05/01 10:10:24;;;;;;;97.78;58.35;;;17.60;75.50;;;;;;4943119;28;95533;-47
2023/05/01 10:12:50;;;;;;;100.07;58.10;;;17.60;75.60;;;;;;4935540;28;95956;-47
2023/05/01 10:15:17;;;;;;;99.32;58.50;;;17.60;75.80;;;;;;4932328;28;95205;-48
2023/05/01 10:17:43;;;;;;;98.53;57.78;;;17.60;76.40;;;;;;4938471;28;95040;-47
2023/05/01 10:20:13;;;;;;;97.05;58.00;;;17.70;76.90;;;;;;4946892;28;95175;-46
2023/05/01 10:22:40;;;;;;;100.38;59.35;;;17.70;76.80;;;;;;4958135;28;98704;-50
2023/05/01 10:25:13;;;;;;;101.97;58.60;;;17.70;77.10;;;;;;4959873;28;95334;-50
2023/05/01 10:27:39;;;;;;;101.28;59.22;;;17.70;77.20;;;;;;4960317;28;96368;-49
2023/05/01 10:30:06;;;;;;;100.35;58.72;;;17.70;77.00;;;;;;4953487;28;101676;-48
2023/05/01 10:32:33;;;;;;;99.15;58.38;;;17.70;77.20;;;;;;4967765;28;94499;-49
2023/05/01 10:35:28;;;;;;;97.60;58.45;;;17.70;77.30;;;;;;4978411;28;95214;-48
2023/05/01 10:38:03;;;;;;;96.47;58.10;;;17.70;77.80;;;;;;4978077;28;95272;-48
2023/05/01 10:40:38;;;;;;;98.88;57.83;;;17.70;77.60;;;;;;4975027;28;95277;-52
2023/05/01 10:43:24;;;;;;;100.47;58.35;;;17.70;77.70;;;;;;4968639;28;95338;-49
2023/05/01 10:45:51;;;;;;;103.25;59.38;;;17.80;78.30;;;;;;4973700;28;95028;-48
2023/05/01 10:48:43;;;;;;;100.60;58.80;;;17.80;78.10;;;;;;4972255;28;95360;-50
2023/05/01 10:51:13;;;;;;;100.50;58.92;;;17.80;78.00;;;;;;4969811;28;94868;-48
2023/05/01 10:53:40;;;;;;;101.57;58.28;;;17.80;78.20;;;;;;4969656;28;96472;-46
2023/05/01 10:56:31;;;;;;;98.55;58.45;;;17.80;78.30;;;;;;4970367;28;96357;-47
2023/05/01 10:58:58;;;;;;;;;;;17.80;78.50;;;;;;4978692;28;95844;-54
2023/05/01 11:01:36;;;;;;;99.28;57.97;;;17.80;78.10;;;;;;4973236;28;94725;-52
2023/05/01 11:04:07;;;;;;;100.03;58.40;;;17.80;78.40;;;;;;4963206;28;96332;-49
2023/05/01 11:06:33;;;;;;;100.47;58.70;;;17.80;78.30;;;;;;4967858;28;99342;-47
2023/05/01 11:08:59;;;;;;;101.90;57.78;;;17.80;78.40;;;;;;4966227;28;95803;-51
2023/05/01 11:11:25;;;;;;;100.63;58.28;;;17.90;78.30;;;;;;4957366;28;95313;-46
2023/05/01 11:14:07;;;;;;;101.45;58.42;;;17.90;78.20;;;;;;4970693;28;96872;-48
2023/05/01 11:16:34;;;;;;;104.35;58.75;;;17.90;78.00;;;;;;4976711;28;94651;-49
2023/05/01 11:19:00;;;;;;;102.97;58.25;;;17.80;77.90;;;;;;4959057;28;96391;-46
2023/05/01 11:21:34;;;;;;;100.45;58.53;;;17.90;78.10;;;;;;4960969;28;96536;-49
2023/05/01 11:24:00;;;;;;;108.80;59.65;;;17.90;78.20;;;;;;4967628;28;95202;-48
2023/05/01 11:26:27;;;;;;;104.57;59.40;;;17.90;78.30;;;;;;4973066;28;95655;-46
2023/05/01 11:28:56;;;;;;;113.78;62.17;;;17.90;78.10;;;;;;4973123;28;95843;-48
2023/05/01 11:31:21;;;;;;;116.90;61.75;;;17.90;78.10;;;;;;4972817;28;96500;-48
2023/05/01 11:33:48;;;;;;;118.28;61.83;;;17.90;78.50;;;;;;4967089;28;94943;-46
2023/05/01 11:36:13;;;;;;;118.40;64.70;;;18.00;78.60;;;;;;4972668;28;94587;-45
2023/05/01 11:38:50;;;;;;;119.20;61.95;;;17.90;78.20;;;;;;4976033;28;93813;-45
2023/05/01 11:41:20;;;;;;;126.57;64.85;;;17.90;78.40;;;;;;4962516;28;96272;-50
2023/05/01 11:43:54;;;;;;;116.97;63.08;;;18.00;78.70;;;;;;4966426;28;95754;-46
2023/05/01 11:46:30;;;;;;;123.68;63.20;;;18.00;79.00;;;;;;4969598;28;96392;-47
2023/05/01 11:48:58;;;;;;;116.30;63.00;;;18.00;78.80;;;;;;4959908;28;95174;-46
2023/05/01 11:51:25;;;;;;;112.68;62.25;;;18.00;79.00;;;;;;4976514;28;94972;-48
2023/05/01 11:54:05;;;;;;;115.72;61.90;;;18.00;79.20;;;;;;4981256;28;94727;-47
2023/05/01 11:56:33;;;;;;;111.28;61.00;;;18.00;79.40;;;;;;4977921;28;95361;-48
2023/05/01 11:59:08;;;;;;;115.68;61.92;;;18.00;79.50;;;;;;4977016;28;95645;-48
2023/05/01 12:01:42;;;;;;;109.55;62.25;;;18.10;79.50;;;;;;4973098;28;94250;-48
2023/05/01 12:04:07;;;;;;;112.13;61.30;;;18.00;79.30;;;;;;4981550;28;93586;-46
2023/05/01 12:06:44;;;;;;;108.85;60.30;;;18.00;79.50;;;;;;4972226;28;94583;-47
2023/05/01 12:09:21;;;;;;;108.30;60.70;;;18.10;79.40;;;;;;4972675;28;97697;-47
2023/05/01 12:11:50;;;;;;;105.35;60.67;;;18.10;79.30;;;;;;4975685;28;95590;-46
2023/05/01 12:14:17;;;;;;;110.88;60.30;;;18.10;79.10;;;;;;4978583;28;95457;-46
2023/05/01 12:16:44;;;;;;;108.05;60.38;;;18.10;79.00;;;;;;4976847;28;94978;-46
2023/05/01 12:19:12;;;;;;;106.53;60.65;;;18.10;78.90;;;;;;4980913;28;94733;-47
2023/05/01 12:21:38;;;;;;;111.45;59.97;;;18.10;78.90;;;;;;4976108;28;95722;-48
2023/05/01 12:24:15;;;;;;;107.75;59.75;;;18.10;79.60;;;;;;4981069;28;95174;-46
2023/05/01 12:26:41;;;;;;;107.85;59.80;;;18.10;78.80;;;;;;4977867;28;94889;-49
2023/05/01 12:29:08;;;;;;;106.90;59.17;;;18.10;78.90;;;;;;4978063;28;94125;-48
2023/05/01 12:31:35;;;;;;;106.90;59.63;;;18.10;78.80;;;;;;4977736;28;95624;-47